Time;durP1;ratioP1;P1;durP2;ratioP2;P2;SDS_P1;SDS_P2;PMS_P1;PMS_P2;Temp;Humidity;BMP_temperature;BMP_pressure;BME280_temperature;BME280_humidity;BME280_pressure;Samples;Min_cycle;Max_cycle;Signal;HPM_P1;HPM_P2
2021/11/28 09:30:20;;;;;;;;;;;;;;;3.96;100.00;97109.00;5081202;27;20317;-67
2021/11/28 09:32:45;;;;;;;;;;;;;;;4.52;100.00;97106.09;5077945;28;19989;-68
2021/11/28 09:35:11;;;;;;;;;;;;;;;4.57;100.00;97096.53;5061165;28;19924;-67
2021/11/28 09:37:36;;;;;;;;;;;;;;;4.58;100.00;97097.34;5049051;28;20330;-66
2021/11/28 09:40:02;;;;;;;;;;;;;;;4.76;100.00;97098.38;5060069;28;19921;-67
2021/11/28 09:42:30;;;;;;;;;;;;;;;4.79;100.00;97095.72;5066562;28;20549;-67
2021/11/28 09:44:56;;;;;;;;;;;;;;;4.89;100.00;97091.91;5067342;28;19921;-68
2021/11/28 09:47:22;;;;;;;;;;;;;;;3.63;100.00;97106.78;5067096;28;19978;-68
2021/11/28 09:49:47;;;;;;;;;;;;;;;3.52;100.00;97111.41;5044828;28;19924;-67
2021/11/28 09:52:19;;;;;;;;;;;;;;;3.45;100.00;97117.59;5078840;28;19979;-67
2021/11/28 09:54:45;;;;;;;;;;;;;;;2.90;100.00;97130.38;5065549;28;19920;-67
2021/11/28 09:57:14;;;;;;;;;;;;;;;2.96;100.00;97131.88;5069670;28;19928;-67
2021/11/28 09:59:41;;;;;;;;;;;;;;;2.81;100.00;97136.59;5069958;28;19981;-66
2021/11/28 10:02:06;;;;;;;;;;;;;;;2.72;100.00;97147.03;5067023;28;19912;-66
2021/11/28 10:04:32;;;;;;;;;;;;;;;2.67;100.00;97159.06;5060876;28;19936;-66
2021/11/28 10:06:57;;;;;;;;;;;;;;;2.76;100.00;97158.78;5062292;28;19916;-67
2021/11/28 10:09:24;;;;;;;;;;;;;;;2.87;100.00;97161.81;5060772;28;19925;-67
2021/11/28 10:11:51;;;;;;;;;;;;;;;2.82;100.00;97163.66;5056317;28;20012;-68
2021/11/28 10:14:17;;;;;;;;;;;;;;;2.64;100.00;97169.28;5059160;28;19921;-66
2021/11/28 10:16:46;;;;;;;;;;;;;;;2.74;100.00;97173.25;5062290;28;20417;-67
2021/11/28 10:19:14;;;;;;;;;;;;;;;2.48;100.00;97177.34;5070042;28;20485;-67
2021/11/28 10:21:40;;;;;;;;;;;;;;;2.69;100.00;97172.53;5073244;28;20035;-68
2021/11/28 10:24:12;;;;;;;;;;;;;;;2.62;100.00;97176.97;5058592;28;19952;-67
2021/11/28 10:26:59;;;;;;;;;;;;;;;2.54;100.00;97178.09;5057149;28;19935;-68
2021/11/28 10:29:28;;;;;;;;;;;;;;;2.57;100.00;97188.97;5057945;28;20808;-67
2021/11/28 10:31:55;;;;;;;;;;;;;;;2.59;100.00;97187.22;5059084;28;19923;-67
2021/11/28 10:34:32;;;;;;;;;;;;;;;2.71;100.00;97191.09;5057061;28;19920;-68
2021/11/28 10:37:07;;;;;;;;;;;;;;;2.69;100.00;97183.53;5076966;28;19948;-67
2021/11/28 10:39:44;;;;;;;;;;;;;;;2.57;100.00;97188.16;5056488;28;20711;-67
2021/11/28 10:42:11;;;;;;;;;;;;;;;2.68;100.00;97189.50;5044636;28;19917;-67
2021/11/28 10:44:37;;;;;;;;;;;;;;;2.66;100.00;97192.97;5054118;28;19917;-67
2021/11/28 10:47:13;;;;;;;;;;;;;;;2.97;100.00;97192.88;5048148;28;19917;-66
2021/11/28 10:49:39;;;;;;;;;;;;;;;2.95;100.00;97188.72;5044937;28;20641;-67
2021/11/28 10:52:10;;;;;;;;;;;;;;;3.06;100.00;97191.78;5036841;28;19917;-67
2021/11/28 10:54:43;;;;;;;;;;;;;;;3.29;100.00;97188.50;5042979;28;19932;-67
2021/11/28 10:57:14;;;;;;;;;;;;;;;3.51;100.00;97188.63;5046900;28;19928;-67
2021/11/28 10:59:43;;;;;;;;;;;;;;;3.17;100.00;97179.56;5051498;28;20011;-66
2021/11/28 11:02:22;;;;;;;;;;;;;;;3.14;100.00;97180.44;5047341;28;19916;-67
2021/11/28 11:04:49;;;;;;;;;;;;;;;3.34;100.00;97174.72;5051044;28;19943;-68
2021/11/28 11:07:24;;;;;;;;;;;;;;;3.03;100.00;97171.50;5052158;28;20249;-68
2021/11/28 11:10:14;;;;;;;;;;;;;;;3.24;100.00;97172.53;5031447;28;20354;-68
2021/11/28 11:12:57;;;;;;;;;;;;;;;3.38;100.00;97182.28;5026871;28;20409;-67
2021/11/28 11:15:32;;;;;;;;;;;;;;;3.48;100.00;97166.66;5030894;28;19913;-67
2021/11/28 11:17:58;;;;;;;;;;;;;;;3.55;100.00;97168.09;5029539;28;20311;-67
2021/11/28 11:20:25;;;;;;;;;;;;;;;3.59;100.00;97160.38;5030538;28;19935;-67
2021/11/28 11:22:51;;;;;;;;;;;;;;;3.48;100.00;97158.19;5032099;28;19917;-66
2021/11/28 11:25:17;;;;;;;;;;;;;;;3.70;100.00;97158.31;5044396;28;19928;-67
2021/11/28 11:27:45;;;;;;;;;;;;;;;3.30;100.00;97157.91;5031509;28;20444;-67
2021/11/28 11:30:12;;;;;;;;;;;;;;;3.55;100.00;97159.63;5030890;28;19925;-67
2021/11/28 11:32:45;;;;;;;;;;;;;;;3.54;100.00;97155.44;5033663;28;20261;-67
2021/11/28 11:35:18;;;;;;;;;;;;;;;3.27;100.00;97165.63;5037588;28;19943;-68
2021/11/28 11:37:45;;;;;;;;;;;;;;;3.68;100.00;97160.91;5024138;28;19920;-67
2021/11/28 11:40:10;;;;;;;;;;;;;;;3.31;100.00;97156.22;5022313;28;19927;-68
2021/11/28 11:42:38;;;;;;;;;;;;;;;3.49;100.00;97170.00;5021246;28;19931;-68
2021/11/28 11:45:06;;;;;;;;;;;;;;;3.39;100.00;97169.50;5023420;28;19932;-68
2021/11/28 11:47:35;;;;;;;;;;;;;;;3.75;100.00;97172.53;5017988;28;19926;-67
2021/11/28 11:50:00;;;;;;;;;;;;;;;4.28;100.00;97166.44;5062562;28;19982;-68
2021/11/28 11:52:30;;;;;;;;;;;;;;;4.03;100.00;97169.03;5061258;28;19924;-68
2021/11/28 11:55:02;;;;;;;;;;;;;;;3.94;100.00;97162.53;5064346;28;19913;-68
2021/11/28 11:57:36;;;;;;;;;;;;;;;4.39;100.00;97158.41;5046856;28;19924;-67
2021/11/28 12:00:09;;;;;;;;;;;;;;;4.11;100.00;97150.94;5052301;28;20333;-67
2021/11/28 12:02:37;;;;;;;;;;;;;;;3.77;100.00;97152.94;5057540;28;19928;-68
2021/11/28 12:05:22;;;;;;;;;;;;;;;3.94;100.00;97151.53;5055999;28;20296;-68
2021/11/28 12:07:51;;;;;;;;;;;;;;;3.67;100.00;97159.25;5060226;28;20598;-67
2021/11/28 12:10:25;;;;;;;;;;;;;;;3.93;100.00;97165.16;5051941;28;20010;-67
2021/11/28 12:12:51;;;;;;;;;;;;;;;3.74;100.00;97170.03;5058162;28;20372;-66
2021/11/28 12:15:17;;;;;;;;;;;;;;;3.62;100.00;97166.19;5055068;28;19924;-67
2021/11/28 12:17:42;;;;;;;;;;;;;;;3.54;100.00;97174.09;5052024;28;19923;-67
2021/11/28 12:20:08;;;;;;;;;;;;;;;3.44;100.00;97171.88;5021443;28;20287;-69
2021/11/28 12:22:39;;;;;;;;;;;;;;;3.67;100.00;97179.59;5031586;28;20305;-69
2021/11/28 12:25:23;;;;;;;;;;;;;;;3.84;100.00;97175.66;5020976;28;19924;-68
2021/11/28 12:27:49;;;;;;;;;;;;;;;3.71;100.00;97172.69;5024867;28;20324;-69
2021/11/28 12:30:31;;;;;;;;;;;;;;;3.60;100.00;97177.31;5019605;28;20012;-68
2021/11/28 12:32:56;;;;;;;;;;;;;;;3.61;100.00;97184.91;5004765;28;19921;-68
2021/11/28 12:35:35;;;;;;;;;;;;;;;3.54;100.00;97188.53;5004424;28;19932;-68
2021/11/28 12:38:00;;;;;;;;;;;;;;;3.40;100.00;97200.84;5005069;28;19917;-67
2021/11/28 12:40:27;;;;;;;;;;;;;;;3.48;100.00;97201.44;5004713;28;19928;-67
2021/11/28 12:42:53;;;;;;;;;;;;;;;3.75;100.00;97207.34;5003892;28;19995;-67
2021/11/28 12:45:32;;;;;;;;;;;;;;;3.63;100.00;97203.50;5003728;28;19992;-68
2021/11/28 12:48:01;;;;;;;;;;;;;;;3.57;100.00;97206.25;5003211;28;20205;-67
2021/11/28 12:50:26;;;;;;;;;;;;;;;3.93;100.00;97211.00;5003333;28;19952;-67
2021/11/28 12:52:52;;;;;;;;;;;;;;;3.72;100.00;97202.38;5015179;28;20499;-68
2021/11/28 12:55:18;;;;;;;;;;;;;;;3.62;100.00;97199.28;5034216;28;20370;-68
2021/11/28 12:57:45;;;;;;;;;;;;;;;3.63;100.00;97203.50;5004372;28;19921;-68
2021/11/28 13:00:13;;;;;;;;;;;;;;;3.35;100.00;97204.41;5006316;28;19964;-67
2021/11/28 13:02:41;;;;;;;;;;;;;;;3.43;100.00;97203.31;5003244;28;19925;-68
2021/11/28 13:05:25;;;;;;;;;;;;;;;3.52;100.00;97205.56;5003664;28;20299;-69
2021/11/28 13:07:57;;;;;;;;;;;;;;;3.95;100.00;97194.78;5004300;28;19917;-69
2021/11/28 13:10:26;;;;;;;;;;;;;;;4.12;100.00;97203.53;5006960;28;19924;-67
2021/11/28 13:12:51;;;;;;;;;;;;;;;4.23;100.00;97198.06;5003500;28;20035;-68
2021/11/28 13:15:18;;;;;;;;;;;;;;;4.00;100.00;97189.50;5002750;28;20008;-67
2021/11/28 13:17:43;;;;;;;;;;;;;;;3.88;100.00;97190.78;5038093;28;19925;-68
2021/11/28 13:20:08;;;;;;;;;;;;;;;4.11;100.00;97189.97;5001653;28;20421;-68
2021/11/28 13:22:39;;;;;;;;;;;;;;;4.08;100.00;97185.00;5006667;28;20358;-67
2021/11/28 13:25:23;;;;;;;;;;;;;;;3.83;100.00;97187.56;5036479;28;19922;-68
2021/11/28 13:27:48;;;;;;;;;;;;;;;3.94;100.00;97197.34;5003583;28;19918;-68
2021/11/28 13:30:18;;;;;;;;;;;;;;;3.81;100.00;97201.19;5022849;28;20366;-67
2021/11/28 13:32:44;;;;;;;;;;;;;;;3.75;100.00;97203.06;5034215;28;19917;-67
2021/11/28 13:35:16;;;;;;;;;;;;;;;3.72;100.00;97207.47;5024640;28;19924;-67
2021/11/28 13:37:41;;;;;;;;;;;;;;;3.77;100.00;97201.31;5025865;28;20594;-68
2021/11/28 13:40:08;;;;;;;;;;;;;;;3.86;100.00;97204.44;5024217;28;20262;-67
2021/11/28 13:42:43;;;;;;;;;;;;;;;3.76;100.00;97207.31;5022661;28;19927;-68
2021/11/28 13:45:10;;;;;;;;;;;;;;;3.66;100.00;97203.38;5023103;28;20362;-68
2021/11/28 13:47:35;;;;;;;;;;;;;;;3.49;100.00;97210.72;5021401;28;20052;-69
2021/11/28 13:50:06;;;;;;;;;;;;;;;3.34;100.00;97217.16;5021563;28;20004;-68
2021/11/28 13:52:31;;;;;;;;;;;;;;;3.30;100.00;97211.31;5021534;28;19920;-68
2021/11/28 13:54:57;;;;;;;;;;;;;;;3.39;100.00;97224.66;5018613;28;19982;-68
2021/11/28 13:57:24;;;;;;;;;;;;;;;3.51;100.00;97229.34;5022211;28;19913;-67
2021/11/28 13:59:57;;;;;;;;;;;;;;;3.27;100.00;97226.69;5021573;28;19921;-68
2021/11/28 14:02:25;;;;;;;;;;;;;;;3.16;100.00;97228.75;5038403;28;19917;-68
2021/11/28 14:04:52;;;;;;;;;;;;;;;3.22;100.00;97228.56;5022390;28;19920;-67
2021/11/28 14:07:19;;;;;;;;;;;;;;;3.38;100.00;97228.09;5025404;28;19957;-68
2021/11/28 14:09:46;;;;;;;;;;;;;;;3.31;100.00;97228.28;5036596;28;20537;-67
2021/11/28 14:12:16;;;;;;;;;;;;;;;3.44;100.00;97231.25;5025865;28;19921;-68
2021/11/28 14:15:07;;;;;;;;;;;;;;;3.38;100.00;97233.19;5034905;28;19912;-67
2021/11/28 14:17:33;;;;;;;;;;;;;;;3.39;100.00;97235.66;5025748;28;20004;-68
2021/11/28 14:20:05;;;;;;;;;;;;;;;3.63;100.00;97239.13;5044959;28;20000;-68
2021/11/28 14:22:31;;;;;;;;;;;;;;;3.49;100.00;97238.72;5025495;28;19947;-67
2021/11/28 14:25:15;;;;;;;;;;;;;;;3.48;100.00;97234.53;5028375;28;19960;-67
2021/11/28 14:27:41;;;;;;;;;;;;;;;3.40;100.00;97241.56;5026292;28;19940;-67
2021/11/28 14:30:07;;;;;;;;;;;;;;;3.30;100.00;97236.75;5038823;28;19924;-67
2021/11/28 14:32:32;;;;;;;;;;;;;;;3.55;100.00;97243.63;5027575;28;19920;-68
2021/11/28 14:35:16;;;;;;;;;;;;;;;3.30;100.00;97252.03;5024252;28;19917;-67
2021/11/28 14:37:41;;;;;;;;;;;;;;;3.45;100.00;97255.81;5025163;28;19917;-68
2021/11/28 14:40:07;;;;;;;;;;;;;;;3.60;100.00;97253.66;5026878;28;19944;-67
2021/11/28 14:42:35;;;;;;;;;;;;;;;3.48;100.00;97259.97;5026086;28;20286;-68
2021/11/28 14:45:00;;;;;;;;;;;;;;;3.29;100.00;97268.19;5027050;28;19960;-67
2021/11/28 14:47:28;;;;;;;;;;;;;;;3.17;100.00;97275.34;5021306;28;19956;-69
2021/11/28 14:49:58;;;;;;;;;;;;;;;3.20;100.00;97278.66;5026011;28;19924;-67
2021/11/28 14:52:41;;;;;;;;;;;;;;;3.16;100.00;97287.25;5029427;28;19966;-68
2021/11/28 14:55:20;;;;;;;;;;;;;;;3.21;100.00;97287.94;5037596;28;20039;-67
2021/11/28 14:57:47;;;;;;;;;;;;;;;3.20;100.00;97296.44;5025077;28;19917;-68
2021/11/28 15:00:26;;;;;;;;;;;;;;;2.98;100.00;97290.31;5024357;28;20302;-67
2021/11/28 15:02:51;;;;;;;;;;;;;;;2.90;100.00;97293.94;5025249;28;20354;-67
2021/11/28 15:05:19;;;;;;;;;;;;;;;2.80;100.00;97291.69;5027512;28;19921;-67
2021/11/28 15:07:44;;;;;;;;;;;;;;;2.92;100.00;97298.97;5037681;28;20298;-67
2021/11/28 15:10:16;;;;;;;;;;;;;;;2.93;100.00;97298.09;5024840;28;19924;-67
2021/11/28 15:12:42;;;;;;;;;;;;;;;2.90;100.00;97301.56;5037478;28;19924;-68
2021/11/28 15:15:08;;;;;;;;;;;;;;;2.79;100.00;97295.94;5023910;28;19944;-68
2021/11/28 15:17:35;;;;;;;;;;;;;;;2.77;100.00;97301.94;5024141;28;20226;-69
2021/11/28 15:20:01;;;;;;;;;;;;;;;2.74;100.00;97307.97;5037628;28;19921;-69
2021/11/28 15:22:26;;;;;;;;;;;;;;;2.69;100.00;97304.69;5025369;28;19964;-68
2021/11/28 15:24:52;;;;;;;;;;;;;;;2.81;100.00;97309.44;5026791;28;20374;-69
2021/11/28 15:27:17;;;;;;;;;;;;;;;2.74;100.00;97302.88;5026561;28;19912;-68
2021/11/28 15:29:42;;;;;;;;;;;;;;;2.82;100.00;97308.56;5027239;28;19929;-68
2021/11/28 15:32:09;;;;;;;;;;;;;;;2.71;100.00;97303.78;5024857;28;20004;-67
2021/11/28 15:34:35;;;;;;;;;;;;;;;2.85;100.00;97308.50;5025039;28;20562;-67
2021/11/28 15:37:00;;;;;;;;;;;;;;;2.83;100.00;97307.69;5056660;28;19927;-68
2021/11/28 15:39:26;;;;;;;;;;;;;;;2.88;100.00;97305.03;5026084;28;20199;-67
2021/11/28 15:41:52;;;;;;;;;;;;;;;2.84;100.00;97301.72;5036807;28;19913;-68
2021/11/28 15:44:18;;;;;;;;;;;;;;;2.59;100.00;97303.28;5024618;28;19924;-69
2021/11/28 15:46:43;;;;;;;;;;;;;;;2.65;100.00;97314.13;5024319;28;20014;-67
2021/11/28 15:49:09;;;;;;;;;;;;;;;2.65;100.00;97310.75;5038165;28;20601;-68
2021/11/28 15:51:35;;;;;;;;;;;;;;;2.47;100.00;97312.09;5037811;28;19943;-68
2021/11/28 15:54:00;;;;;;;;;;;;;;;2.33;100.00;97312.44;5028926;28;19913;-67
2021/11/28 15:56:26;;;;;;;;;;;;;;;2.43;100.00;97313.03;5028079;28;19920;-67
2021/11/28 15:58:51;;;;;;;;;;;;;;;2.37;100.00;97320.81;5028351;28;19917;-67
2021/11/28 16:01:18;;;;;;;;;;;;;;;2.26;100.00;97327.00;5026822;28;19917;-68
2021/11/28 16:03:44;;;;;;;;;;;;;;;2.41;100.00;97330.03;5028425;28;19920;-68
2021/11/28 16:06:09;;;;;;;;;;;;;;;2.26;100.00;97337.16;5028204;28;20374;-66
2021/11/28 16:08:34;;;;;;;;;;;;;;;2.43;100.00;97334.19;5026567;28;19924;-68
2021/11/28 16:11:00;;;;;;;;;;;;;;;2.39;100.00;97332.59;5027922;28;19971;-67
2021/11/28 16:13:25;;;;;;;;;;;;;;;2.35;100.00;97345.41;5046666;28;19912;-67
2021/11/28 16:15:54;;;;;;;;;;;;;;;2.40;100.00;97329.19;5047046;28;19920;-67
2021/11/28 16:18:19;;;;;;;;;;;;;;;2.31;100.00;97334.50;5047682;28;19920;-68
2021/11/28 16:20:45;;;;;;;;;;;;;;;2.32;100.00;97333.63;5047397;28;19913;-66
2021/11/28 16:23:10;;;;;;;;;;;;;;;2.43;100.00;97336.72;5047869;28;20020;-67
2021/11/28 16:25:36;;;;;;;;;;;;;;;2.53;100.00;97329.69;5062151;28;19924;-68
2021/11/28 16:28:01;;;;;;;;;;;;;;;2.54;100.00;97335.63;5062512;28;19919;-67
2021/11/28 16:30:48;;;;;;;;;;;;;;;2.37;100.00;97339.41;5030258;28;20157;-67
2021/11/28 16:33:13;;;;;;;;;;;;;;;2.58;100.00;97332.09;5046450;28;19920;-67
2021/11/28 16:35:39;;;;;;;;;;;;;;;2.71;100.00;97333.44;5047817;28;19917;-68
2021/11/28 16:38:05;;;;;;;;;;;;;;;2.97;100.00;97332.72;5047186;28;20373;-68
2021/11/28 16:40:31;;;;;;;;;;;;;;;2.91;100.00;97331.19;5047858;28;20042;-68
2021/11/28 16:42:56;;;;;;;;;;;;;;;3.46;100.00;97315.19;5047433;28;19928;-68
2021/11/28 16:45:22;;;;;;;;;;;;;;;3.37;100.00;97315.47;5047295;28;19913;-67
2021/11/28 16:47:47;;;;;;;;;;;;;;;4.18;100.00;97298.41;5047585;28;20009;-68
2021/11/28 16:50:13;;;;;;;;;;;;;;;4.40;100.00;97282.38;5047166;28;20071;-68
2021/11/28 16:52:38;;;;;;;;;;;;;;;4.53;100.00;97268.31;5043913;28;19920;-68
2021/11/28 16:55:04;;;;;;;;;;;;;;;4.82;100.00;97263.91;5031202;28;19920;-68
2021/11/28 16:57:31;;;;;;;;;;;;;;;3.32;100.00;97275.72;5079686;28;19920;-68
2021/11/28 16:59:56;;;;;;;;;;;;;;;2.68;100.00;97296.22;5046847;28;19939;-67
2021/11/28 17:02:21;;;;;;;;;;;;;;;2.78;100.00;97308.69;5046908;28;20075;-67
2021/11/28 17:04:47;;;;;;;;;;;;;;;2.43;100.00;97313.84;5072919;28;19999;-67
2021/11/28 17:07:12;;;;;;;;;;;;;;;3.00;100.00;97329.25;5026678;28;19913;-67
2021/11/28 17:09:38;;;;;;;;;;;;;;;3.62;100.00;97318.91;5046117;28;19912;-68
2021/11/28 17:12:03;;;;;;;;;;;;;;;3.30;100.00;97318.19;5046168;28;19971;-67
2021/11/28 17:14:29;;;;;;;;;;;;;;;3.01;100.00;97321.59;5046610;28;19923;-68
2021/11/28 17:16:54;;;;;;;;;;;;;;;3.04;100.00;97318.97;5046632;28;19913;-67
2021/11/28 17:19:20;;;;;;;;;;;;;;;3.13;100.00;97325.50;5046665;28;19924;-67
2021/11/28 17:21:45;;;;;;;;;;;;;;;3.11;100.00;97317.06;5046631;28;20023;-66
2021/11/28 17:24:10;;;;;;;;;;;;;;;3.36;100.00;97322.25;5046873;28;19917;-68
2021/11/28 17:26:36;;;;;;;;;;;;;;;3.23;100.00;97324.34;5046020;28;19943;-68
2021/11/28 17:29:02;;;;;;;;;;;;;;;3.18;100.00;97328.72;5046281;28;20008;-68
2021/11/28 17:31:28;;;;;;;;;;;;;;;3.62;100.00;97324.00;5046378;28;20336;-68
2021/11/28 17:33:55;;;;;;;;;;;;;;;3.63;100.00;97327.41;5045502;28;19913;-68
2021/11/28 17:36:20;;;;;;;;;;;;;;;3.70;100.00;97324.59;5046920;28;19913;-68
2021/11/28 17:38:46;;;;;;;;;;;;;;;3.50;100.00;97320.13;5046594;28;20339;-68
2021/11/28 17:41:11;;;;;;;;;;;;;;;3.52;100.00;97315.00;5046331;28;19923;-68
2021/11/28 17:43:36;;;;;;;;;;;;;;;3.65;100.00;97316.28;5046828;28;19917;-67
2021/11/28 17:46:02;;;;;;;;;;;;;;;4.07;100.00;97318.31;5045795;28;20039;-67
2021/11/28 17:48:27;;;;;;;;;;;;;;;4.63;100.00;97303.69;5044792;28;19966;-66
2021/11/28 17:50:53;;;;;;;;;;;;;;;3.58;100.00;97304.63;5037787;28;20374;-68
2021/11/28 17:53:18;;;;;;;;;;;;;;;3.62;100.00;97316.38;5030761;28;19921;-66
2021/11/28 17:55:44;;;;;;;;;;;;;;;4.08;100.00;97312.34;5030339;28;19927;-68
2021/11/28 17:58:09;;;;;;;;;;;;;;;4.27;100.00;97306.66;5029987;28;19952;-68
2021/11/28 18:00:35;;;;;;;;;;;;;;;4.59;100.00;97303.81;5031731;28;19943;-69
2021/11/28 18:03:01;;;;;;;;;;;;;;;3.92;100.00;97298.44;5049677;28;19917;-68
2021/11/28 18:05:29;;;;;;;;;;;;;;;4.35;100.00;97300.38;5087032;28;19948;-69
2021/11/28 18:07:55;;;;;;;;;;;;;;;4.24;100.00;97301.63;5042475;28;19948;-70
2021/11/28 18:10:20;;;;;;;;;;;;;;;3.56;100.00;97303.84;5030787;28;20286;-68
2021/11/28 18:12:46;;;;;;;;;;;;;;;3.82;100.00;97302.19;5031760;28;19917;-68
2021/11/28 18:15:12;;;;;;;;;;;;;;;4.45;100.00;97310.25;5031661;28;19944;-69
2021/11/28 18:17:37;;;;;;;;;;;;;;;4.81;100.00;97308.13;5070460;28;20338;-71
2021/11/28 18:20:03;;;;;;;;;;;;;;;4.43;100.00;97301.84;5039797;28;19963;-68
2021/11/28 18:22:29;;;;;;;;;;;;;;;4.35;100.00;97305.47;5054280;28;19912;-68
2021/11/28 18:24:59;;;;;;;;;;;;;;;4.59;100.00;97302.97;5066135;28;19916;-68
2021/11/28 18:27:26;;;;;;;;;;;;;;;4.97;100.00;97301.59;5048357;28;19937;-67
2021/11/28 18:29:55;;;;;;;;;;;;;;;5.24;100.00;97286.13;5047262;28;19925;-68
2021/11/28 18:32:21;;;;;;;;;;;;;;;4.70;100.00;97290.69;5048640;28;19930;-67
2021/11/28 18:34:48;;;;;;;;;;;;;;;3.95;100.00;97295.81;5043879;28;20463;-68
2021/11/28 18:37:14;;;;;;;;;;;;;;;3.59;100.00;97303.75;5046507;28;20007;-67
2021/11/28 18:39:39;;;;;;;;;;;;;;;3.25;100.00;97311.56;5051879;28;20074;-68
2021/11/28 18:42:09;;;;;;;;;;;;;;;3.09;100.00;97316.28;5050785;28;20055;-67
2021/11/28 18:44:41;;;;;;;;;;;;;;;2.81;100.00;97329.78;5066684;28;20373;-67
2021/11/28 18:47:07;;;;;;;;;;;;;;;2.61;100.00;97337.13;5050935;28;20382;-67
2021/11/28 18:49:32;;;;;;;;;;;;;;;2.59;100.00;97354.13;5051589;28;20402;-67
2021/11/28 18:52:01;;;;;;;;;;;;;;;2.61;100.00;97362.53;5051506;28;19913;-67
2021/11/28 18:54:26;;;;;;;;;;;;;;;2.22;100.00;97385.53;5049026;28;20007;-66
2021/11/28 18:56:53;;;;;;;;;;;;;;;2.18;100.00;97396.63;5053192;28;19944;-67
2021/11/28 18:59:22;;;;;;;;;;;;;;;2.23;100.00;97402.44;5084320;28;19917;-67
2021/11/28 19:01:54;;;;;;;;;;;;;;;2.14;100.00;97415.34;5050650;28;20007;-67
2021/11/28 19:04:25;;;;;;;;;;;;;;;2.30;100.00;97417.50;5052300;28;19951;-66
2021/11/28 19:06:50;;;;;;;;;;;;;;;2.39;100.00;97425.75;5066315;28;19913;-66
2021/11/28 19:09:16;;;;;;;;;;;;;;;2.38;100.00;97437.63;5082824;28;20441;-67
2021/11/28 19:11:42;;;;;;;;;;;;;;;2.28;100.00;97442.09;5051115;28;19913;-66
2021/11/28 19:14:10;;;;;;;;;;;;;;;2.18;100.00;97452.50;5049353;28;19916;-65
2021/11/28 19:16:39;;;;;;;;;;;;;;;2.22;100.00;97456.66;5063657;28;19916;-66
2021/11/28 19:19:05;;;;;;;;;;;;;;;2.32;100.00;97473.34;5050935;28;19917;-66
2021/11/28 19:21:31;;;;;;;;;;;;;;;2.27;100.00;97485.31;5082303;28;19967;-66
2021/11/28 19:23:56;;;;;;;;;;;;;;;2.19;100.00;97477.03;5049704;28;20459;-66
2021/11/28 19:26:22;;;;;;;;;;;;;;;2.02;100.00;97488.41;5080190;28;20066;-66
2021/11/28 19:28:48;;;;;;;;;;;;;;;2.13;96.63;97505.94;5028614;28;19936;-65
2021/11/28 19:31:13;;;;;;;;;;;;;;;2.14;93.76;97509.31;5033173;28;20455;-65
2021/11/28 19:33:39;;;;;;;;;;;;;;;2.13;90.25;97512.75;5034128;28;19932;-65
2021/11/28 19:36:05;;;;;;;;;;;;;;;2.14;87.27;97524.56;5023930;28;20165;-65
2021/11/28 19:38:30;;;;;;;;;;;;;;;2.14;83.88;97524.56;5032830;28;19960;-66
2021/11/28 19:40:56;;;;;;;;;;;;;;;2.15;82.11;97527.06;5018663;28;20293;-66
2021/11/28 19:43:21;;;;;;;;;;;;;;;2.08;79.73;97538.22;5025453;28;19920;-65
2021/11/28 19:45:47;;;;;;;;;;;;;;;2.09;77.99;97543.25;5029508;28;19913;-67
2021/11/28 19:48:32;;;;;;;;;;;;;;;2.22;76.47;97548.09;5045885;28;19920;-67
2021/11/28 19:50:59;;;;;;;;;;;;;;;2.17;75.89;97544.81;5033410;28;19963;-66
2021/11/28 19:53:27;;;;;;;;;;;;;;;2.19;74.15;97548.13;5029972;28;19920;-66
2021/11/28 19:55:52;;;;;;;;;;;;;;;2.15;73.58;97556.72;5040523;28;19913;-66
2021/11/28 19:58:18;;;;;;;;;;;;;;;2.06;72.20;97561.09;5048594;28;19913;-65
2021/11/28 20:00:44;;;;;;;;;;;;;;;2.05;69.96;97562.00;5047807;28;20317;-64
2021/11/28 20:03:09;;;;;;;;;;;;;;;2.12;68.15;97561.84;5047292;28;19971;-64
2021/11/28 20:05:34;;;;;;;;;;;;;;;2.03;66.77;97563.72;5047725;28;20016;-65
2021/11/28 20:08:00;;;;;;;;;;;;;;;2.04;65.46;97567.91;5062985;28;19921;-67
2021/11/28 20:10:26;;;;;;;;;;;;;;;2.08;63.32;97574.59;5047679;28;19912;-65
2021/11/28 20:12:51;;;;;;;;;;;;;;;2.13;62.83;97578.75;5046666;28;20035;-66
2021/11/28 20:15:40;;;;;;;;;;;;;;;2.22;61.42;97581.09;5047940;28;19966;-67
2021/11/28 20:18:26;;;;;;;;;;;;;;;2.14;60.88;97583.78;5047839;28;19971;-66
2021/11/28 20:20:53;;;;;;;;;;;;;;;2.06;59.79;97583.13;5046772;28;19948;-67
2021/11/28 20:23:20;;;;;;;;;;;;;;;2.07;58.52;97583.06;5046864;28;19913;-66
2021/11/28 20:25:48;;;;;;;;;;;;;;;2.16;56.91;97588.84;5047696;28;19913;-65
2021/11/28 20:28:14;;;;;;;;;;;;;;;1.94;57.13;97593.53;5047306;28;19944;-66
2021/11/28 20:30:40;;;;;;;;;;;;;;;2.12;55.14;97589.78;5048264;28;20453;-66
2021/11/28 20:33:08;;;;;;;;;;;;;;;2.00;54.86;97594.22;5047463;28;19996;-66
2021/11/28 20:35:35;;;;;;;;;;;;;;;1.94;54.19;97593.53;5058634;28;19923;-66
2021/11/28 20:38:01;;;;;;;;;;;;;;;2.06;52.88;97598.38;5046516;28;19920;-66
2021/11/28 20:40:27;;;;;;;;;;;;;;;1.95;51.88;97611.28;5048047;28;20555;-67
2021/11/28 20:42:52;;;;;;;;;;;;;;;2.05;50.52;97615.31;5047880;28;19999;-65
2021/11/28 20:45:19;;;;;;;;;;;;;;;2.00;50.53;97609.47;5047765;28;19947;-65
2021/11/28 20:47:53;;;;;;;;;;;;;;;2.16;49.59;97609.16;5047965;28;19959;-66
2021/11/28 20:50:19;;;;;;;;;;;;;;;2.02;49.62;97622.16;5047439;28;19920;-66
2021/11/28 20:52:46;;;;;;;;;;;;;;;2.09;48.38;97624.50;5047467;28;20048;-66
2021/11/28 20:55:12;;;;;;;;;;;;;;;2.17;48.17;97615.94;5046302;28;20007;-67
2021/11/28 20:57:37;;;;;;;;;;;;;;;2.10;47.84;97625.38;5047760;28;20429;-64
2021/11/28 21:00:24;;;;;;;;;;;;;;;2.12;47.39;97627.88;5047206;28;19966;-66
2021/11/28 21:02:53;;;;;;;;;;;;;;;2.14;46.96;97626.13;5043169;28;19913;-67
2021/11/28 21:05:18;;;;;;;;;;;;;;;2.16;47.16;97621.84;5044081;28;19963;-65
2021/11/28 21:07:44;;;;;;;;;;;;;;;2.05;47.07;97628.00;5047918;28;19963;-66
2021/11/28 21:10:10;;;;;;;;;;;;;;;2.02;46.96;97633.13;5047144;28;19913;-66
2021/11/28 21:12:39;;;;;;;;;;;;;;;1.97;46.58;97634.09;5052448;28;19913;-66
2021/11/28 21:15:06;;;;;;;;;;;;;;;2.14;45.43;97638.81;5036106;28;20748;-66
2021/11/28 21:17:32;;;;;;;;;;;;;;;1.92;46.01;97641.81;5040519;28;19961;-66
2021/11/28 21:19:58;;;;;;;;;;;;;;;2.00;45.60;97634.84;5045617;28;19916;-66
2021/11/28 21:22:24;;;;;;;;;;;;;;;1.99;44.29;97640.81;5047538;28;19936;-67
2021/11/28 21:24:50;;;;;;;;;;;;;;;2.02;44.22;97632.28;5045570;28;19944;-66
2021/11/28 21:27:15;;;;;;;;;;;;;;;2.02;43.21;97643.28;5046562;28;19964;-66
2021/11/28 21:29:42;;;;;;;;;;;;;;;1.91;42.92;97640.13;5046682;28;19970;-65
2021/11/28 21:32:09;;;;;;;;;;;;;;;1.95;42.02;97646.81;5047047;28;19960;-66
2021/11/28 21:34:37;;;;;;;;;;;;;;;1.94;41.88;97644.28;5048269;28;19929;-65
2021/11/28 21:37:03;;;;;;;;;;;;;;;2.07;40.33;97646.56;5046644;28;20025;-66
2021/11/28 21:39:29;;;;;;;;;;;;;;;1.88;41.43;97652.88;5046971;28;20390;-64
2021/11/28 21:41:55;;;;;;;;;;;;;;;1.89;40.87;97646.91;5047158;28;19923;-63
2021/11/28 21:44:20;;;;;;;;;;;;;;;2.13;40.68;97650.69;5047361;28;20009;-65
2021/11/28 21:46:45;;;;;;;;;;;;;;;1.93;40.84;97646.00;5046585;28;20322;-65
2021/11/28 21:49:12;;;;;;;;;;;;;;;1.86;40.65;97647.00;5046370;28;19920;-66
2021/11/28 21:51:37;;;;;;;;;;;;;;;1.73;40.50;97645.53;5047055;28;20320;-67
2021/11/28 21:54:08;;;;;;;;;;;;;;;1.95;39.64;97651.88;5046728;28;19948;-66
2021/11/28 21:56:34;;;;;;;;;;;;;;;2.04;40.61;97646.63;5046963;28;20413;-65
2021/11/28 21:59:00;;;;;;;;;;;;;;;1.92;41.72;97646.06;5046840;28;20407;-66
2021/11/28 22:01:27;;;;;;;;;;;;;;;1.97;41.28;97649.34;5047389;28;19913;-66
2021/11/28 22:03:52;;;;;;;;;;;;;;;1.97;40.85;97652.69;5047229;28;20437;-66
2021/11/28 22:06:18;;;;;;;;;;;;;;;1.95;40.39;97658.69;5046708;28;19933;-66
2021/11/28 22:08:43;;;;;;;;;;;;;;;1.97;40.46;97654.41;5046927;28;19912;-66
2021/11/28 22:11:09;;;;;;;;;;;;;;;1.88;40.78;97656.25;5046574;28;19913;-66
2021/11/28 22:13:35;;;;;;;;;;;;;;;1.99;40.03;97658.59;5051945;28;19912;-65
2021/11/28 22:16:00;;;;;;;;;;;;;;;1.89;41.09;97654.53;5046751;28;19913;-66
2021/11/28 22:18:26;;;;;;;;;;;;;;;1.89;40.87;97659.63;5045062;28;19913;-66
2021/11/28 22:20:51;;;;;;;;;;;;;;;1.94;39.88;97647.69;5061875;28;20019;-66